createdAt,value
2018-08-17T00:02:19.406Z,24.00
2018-08-17T00:04:48.109Z,24.00
2018-08-17T00:07:16.996Z,24.00
2018-08-17T00:09:45.707Z,24.00
2018-08-17T00:12:14.497Z,24.10
2018-08-17T00:14:43.128Z,24.00
2018-08-17T00:17:11.870Z,23.90
2018-08-17T00:19:40.693Z,23.90
2018-08-17T00:22:09.550Z,24.00
2018-08-17T00:24:38.158Z,23.90
2018-08-17T00:27:06.887Z,23.90
2018-08-17T00:29:35.568Z,24.00
2018-08-17T00:32:04.582Z,24.00
2018-08-17T00:34:33.168Z,24.00
2018-08-17T00:37:01.771Z,24.00
2018-08-17T00:39:30.594Z,23.90
2018-08-17T00:41:59.250Z,23.80
2018-08-17T00:44:29.277Z,23.80
2018-08-17T00:46:57.983Z,23.80
2018-08-17T00:49:26.968Z,23.70
2018-08-17T00:51:56.310Z,23.70
2018-08-17T00:54:24.932Z,23.60
2018-08-17T00:56:53.543Z,23.60
2018-08-17T00:59:23.346Z,23.50
2018-08-17T01:01:52.121Z,23.50
2018-08-17T01:04:21.300Z,23.30
2018-08-17T01:06:49.993Z,23.30
2018-08-17T01:09:18.822Z,23.10
2018-08-17T01:11:47.416Z,23.00
2018-08-17T01:14:16.868Z,23.00
2018-08-17T01:16:45.873Z,23.00
2018-08-17T01:19:15.504Z,23.20
2018-08-17T01:21:44.619Z,23.30
2018-08-17T01:24:13.176Z,23.20
2018-08-17T01:26:42.289Z,23.40
2018-08-17T01:29:10.964Z,23.30
2018-08-17T01:31:39.546Z,23.30
2018-08-17T01:34:08.326Z,23.30
2018-08-17T01:36:37.263Z,23.20
2018-08-17T01:39:08.255Z,23.20
2018-08-17T01:41:36.991Z,23.20
2018-08-17T01:44:06.342Z,23.10
2018-08-17T01:46:35.202Z,23.10
2018-08-17T01:49:03.844Z,23.00
2018-08-17T01:51:33.089Z,22.90
2018-08-17T01:54:01.809Z,22.90
2018-08-17T01:56:30.834Z,22.80
2018-08-17T01:58:59.592Z,22.80
2018-08-17T02:01:28.448Z,22.80
2018-08-17T02:03:57.735Z,22.80
2018-08-17T02:06:26.643Z,22.90
2018-08-17T02:08:55.467Z,22.90
2018-08-17T02:11:25.391Z,22.90
2018-08-17T02:13:54.479Z,22.80
2018-08-17T02:16:23.265Z,22.80
2018-08-17T02:18:52.362Z,22.80
2018-08-17T02:21:21.379Z,22.80
2018-08-17T02:23:50.143Z,22.70
2018-08-17T02:26:19.350Z,22.60
2018-08-17T02:28:48.364Z,22.60
2018-08-17T02:31:17.103Z,22.40
2018-08-17T02:33:45.832Z,22.50
2018-08-17T02:36:14.886Z,22.50
2018-08-17T02:38:43.663Z,22.40
2018-08-17T02:41:12.469Z,22.30
2018-08-17T02:43:41.052Z,22.40
2018-08-17T02:46:10.004Z,22.30
2018-08-17T02:48:38.666Z,22.30
2018-08-17T02:51:07.400Z,22.30
2018-08-17T02:53:36.309Z,22.20
2018-08-17T02:56:04.908Z,22.20
2018-08-17T02:58:33.828Z,22.10
2018-08-17T03:01:02.794Z,22.00
2018-08-17T03:03:32.634Z,22.10
2018-08-17T03:06:01.702Z,22.10
2018-08-17T03:08:30.269Z,22.10
2018-08-17T03:10:58.863Z,22.10
2018-08-17T03:13:27.872Z,22.20
2018-08-17T03:15:56.461Z,22.10
2018-08-17T03:18:25.797Z,22.20
2018-08-17T03:20:54.512Z,22.10
2018-08-17T03:23:23.195Z,22.00
2018-08-17T03:25:51.912Z,21.90
2018-08-17T03:28:21.618Z,21.90
2018-08-17T03:30:51.043Z,21.90
2018-08-17T03:33:19.672Z,21.90
2018-08-17T03:35:48.207Z,21.90
2018-08-17T03:38:16.931Z,21.90
2018-08-17T03:40:45.624Z,21.80
2018-08-17T03:43:14.263Z,21.80
2018-08-17T03:45:42.833Z,21.80
2018-08-17T03:48:12.029Z,21.80
2018-08-17T03:50:41.456Z,21.80
2018-08-17T03:53:10.124Z,21.80
2018-08-17T03:55:39.315Z,21.80
2018-08-17T03:58:08.540Z,21.80
2018-08-17T04:00:37.305Z,21.70
2018-08-17T04:03:07.303Z,21.60
2018-08-17T04:05:36.614Z,21.60
2018-08-17T04:08:05.599Z,21.70
2018-08-17T04:10:35.226Z,21.70
2018-08-17T04:13:03.824Z,21.70
2018-08-17T04:15:32.576Z,21.80
2018-08-17T04:18:01.777Z,21.70
2018-08-17T04:20:30.589Z,21.60
2018-08-17T04:22:59.144Z,21.60
2018-08-17T04:25:28.269Z,21.60
2018-08-17T04:27:56.966Z,21.50
2018-08-17T04:30:25.764Z,21.50
2018-08-17T04:32:54.638Z,21.60
2018-08-17T04:35:23.266Z,21.60
2018-08-17T04:37:51.945Z,21.60
2018-08-17T04:40:20.845Z,21.60
2018-08-17T04:42:50.260Z,21.70
2018-08-17T04:45:18.902Z,21.70
2018-08-17T04:47:47.487Z,21.60
2018-08-17T04:50:16.069Z,21.60
2018-08-17T04:52:44.690Z,21.60
2018-08-17T04:55:13.439Z,21.70
2018-08-17T04:57:42.064Z,21.70
2018-08-17T05:00:11.329Z,21.70
2018-08-17T05:02:40.085Z,21.70
2018-08-17T05:05:09.328Z,21.80
2018-08-17T05:07:38.552Z,21.80
2018-08-17T05:10:08.608Z,21.80
2018-08-17T05:12:37.612Z,21.80
2018-08-17T05:15:06.772Z,21.80
2018-08-17T05:17:35.523Z,21.70
2018-08-17T05:20:04.635Z,21.80
2018-08-17T05:22:33.260Z,21.70
2018-08-17T05:25:01.859Z,21.70
2018-08-17T05:27:30.560Z,21.80
2018-08-17T05:29:59.758Z,21.80
2018-08-17T05:32:28.755Z,21.80
2018-08-17T05:34:57.347Z,21.90
2018-08-17T05:37:26.570Z,21.80
2018-08-17T05:39:55.608Z,21.90
2018-08-17T05:42:24.394Z,21.80
2018-08-17T05:44:52.968Z,21.90
2018-08-17T05:47:21.703Z,22.00
2018-08-17T05:49:50.470Z,22.00
2018-08-17T05:52:19.428Z,22.00
2018-08-17T05:54:48.351Z,22.10
2018-08-17T05:57:17.008Z,22.10
2018-08-17T05:59:45.695Z,22.20
2018-08-17T06:02:14.521Z,22.30
2018-08-17T06:04:43.143Z,22.40
2018-08-17T06:07:12.026Z,22.50
2018-08-17T06:09:41.482Z,22.60
2018-08-17T06:12:10.309Z,22.70
2018-08-17T06:14:39.835Z,22.80
2018-08-17T06:17:08.508Z,22.90
2018-08-17T06:19:38.070Z,22.90
2018-08-17T06:22:07.376Z,23.10
2018-08-17T06:24:36.031Z,23.10
2018-08-17T06:27:05.788Z,23.10
2018-08-17T06:29:34.409Z,23.10
2018-08-17T06:32:04.186Z,23.20
2018-08-17T06:34:33.278Z,23.20
2018-08-17T06:37:02.544Z,23.40
2018-08-17T06:39:31.274Z,23.40
2018-08-17T06:42:00.155Z,23.50
2018-08-17T06:44:30.397Z,23.70
2018-08-17T06:46:58.939Z,23.80
2018-08-17T06:49:27.939Z,23.90
2018-08-17T06:51:57.317Z,24.00
2018-08-17T06:54:26.049Z,24.10
2018-08-17T06:56:55.239Z,24.10
2018-08-17T06:59:24.242Z,24.30
2018-08-17T07:01:53.042Z,24.30
2018-08-17T07:04:22.074Z,24.40
2018-08-17T07:06:51.003Z,24.50
2018-08-17T07:09:20.060Z,24.60
2018-08-17T07:11:50.036Z,24.80
2018-08-17T07:14:18.989Z,24.90
2018-08-17T07:16:47.967Z,25.10
2018-08-17T07:19:16.550Z,25.30
2018-08-17T07:21:45.796Z,25.50
2018-08-17T07:24:14.511Z,25.60
2018-08-17T07:26:43.525Z,25.80
2018-08-17T07:29:12.499Z,25.90
2018-08-17T07:31:41.661Z,26.10
2018-08-17T07:34:10.593Z,26.20
2018-08-17T07:36:40.019Z,26.40
2018-08-17T07:39:08.947Z,26.50
2018-08-17T07:41:38.245Z,26.60
2018-08-17T07:44:06.809Z,26.80
2018-08-17T07:46:35.809Z,26.80
2018-08-17T07:49:04.692Z,26.90
2018-08-17T07:51:33.858Z,27.10
2018-08-17T07:54:03.140Z,27.10
2018-08-17T07:56:32.741Z,27.20
2018-08-17T07:59:02.545Z,27.20
2018-08-17T08:01:31.503Z,27.30
2018-08-17T08:04:00.195Z,27.40
2018-08-17T08:06:30.837Z,27.50
2018-08-17T08:09:00.185Z,27.50
2018-08-17T08:11:29.071Z,27.60
2018-08-17T08:13:58.027Z,27.60
2018-08-17T08:16:26.636Z,27.60
2018-08-17T08:18:55.503Z,27.50
2018-08-17T08:21:25.657Z,27.50
2018-08-17T08:23:57.228Z,27.40
2018-08-17T08:26:26.475Z,27.30
2018-08-17T08:28:56.622Z,27.30
2018-08-17T08:31:25.591Z,27.40
2018-08-17T08:33:54.603Z,25.70
2018-08-17T08:36:23.642Z,27.40
2018-08-17T08:38:52.647Z,27.40
2018-08-17T08:41:21.513Z,27.40
2018-08-17T08:43:50.259Z,27.50
2018-08-17T08:46:18.931Z,27.50
2018-08-17T08:48:47.632Z,27.60
2018-08-17T08:51:16.442Z,27.70
2018-08-17T08:53:44.992Z,27.60
2018-08-17T08:56:13.767Z,27.60
2018-08-17T08:58:42.429Z,27.50
2018-08-17T09:01:11.265Z,27.50
2018-08-17T09:03:40.189Z,27.40
2018-08-17T09:06:09.025Z,27.40
2018-08-17T09:08:37.761Z,27.40
2018-08-17T09:11:06.719Z,27.50
2018-08-17T09:13:35.644Z,27.50
2018-08-17T09:16:04.423Z,27.50
2018-08-17T09:18:33.054Z,27.60
2018-08-17T09:21:01.912Z,27.60
2018-08-17T09:23:30.863Z,27.60
2018-08-17T09:26:00.685Z,27.70
2018-08-17T09:28:29.362Z,27.70
2018-08-17T09:30:58.260Z,27.70
2018-08-17T09:33:27.035Z,27.70
2018-08-17T09:35:55.721Z,27.80
2018-08-17T09:38:24.324Z,27.80
2018-08-17T09:40:52.954Z,27.80
2018-08-17T09:43:22.765Z,27.80
2018-08-17T09:45:51.548Z,27.90
2018-08-17T09:48:20.191Z,27.90
2018-08-17T09:50:48.935Z,28.00
2018-08-17T09:53:17.968Z,28.00
2018-08-17T09:55:47.899Z,27.90
2018-08-17T09:58:17.333Z,27.90
2018-08-17T10:00:52.723Z,27.80
2018-08-17T10:03:27.957Z,27.80
2018-08-17T10:06:01.998Z,27.80
2018-08-17T10:08:37.527Z,27.70
2018-08-17T10:11:06.844Z,27.80
2018-08-17T10:13:35.457Z,27.70
2018-08-17T10:16:04.577Z,27.70
2018-08-17T10:18:41.214Z,27.70
2018-08-17T10:21:10.188Z,27.70
2018-08-17T10:23:38.724Z,27.70
2018-08-17T10:26:07.560Z,27.70
2018-08-17T10:28:36.459Z,27.70
2018-08-17T10:31:05.962Z,27.80
2018-08-17T10:33:40.321Z,27.70
2018-08-17T10:36:09.052Z,27.80
2018-08-17T10:38:37.814Z,27.80
2018-08-17T10:41:06.789Z,27.80
2018-08-17T10:43:35.634Z,27.70
2018-08-17T10:46:07.190Z,27.80
2018-08-17T10:48:36.737Z,27.80
2018-08-17T10:51:06.037Z,27.70
2018-08-17T10:53:42.646Z,27.80
2018-08-17T10:56:11.819Z,27.80
2018-08-17T10:58:40.706Z,27.90
2018-08-17T11:01:10.538Z,27.80
2018-08-17T11:03:39.693Z,27.80
2018-08-17T11:06:09.568Z,27.70
2018-08-17T11:08:39.506Z,27.70
2018-08-17T11:11:08.928Z,27.70
2018-08-17T11:13:37.735Z,27.80
2018-08-17T11:16:07.465Z,27.80
2018-08-17T11:18:36.182Z,27.80
2018-08-17T11:21:04.878Z,27.80
2018-08-17T11:23:33.679Z,27.80
2018-08-17T11:26:02.213Z,27.90
2018-08-17T11:28:32.160Z,28.00
2018-08-17T11:31:00.794Z,28.10
2018-08-17T11:33:30.012Z,28.20
2018-08-17T11:36:02.021Z,28.20
2018-08-17T11:38:30.788Z,28.20
2018-08-17T11:40:59.405Z,28.10
2018-08-17T11:43:28.247Z,28.00
2018-08-17T11:45:56.901Z,28.10
2018-08-17T11:48:30.715Z,28.20
2018-08-17T11:50:59.514Z,28.30
2018-08-17T11:53:28.622Z,28.30
2018-08-17T11:55:57.290Z,28.50
2018-08-17T11:58:25.992Z,28.60
2018-08-17T12:00:54.578Z,28.80
2018-08-17T12:03:23.162Z,28.90
2018-08-17T12:05:51.754Z,28.90
2018-08-17T12:08:21.439Z,29.00
2018-08-17T12:10:55.420Z,29.00
2018-08-17T12:13:24.807Z,28.90
2018-08-17T12:15:56.183Z,28.90
2018-08-17T12:18:25.278Z,28.80
2018-08-17T12:20:54.467Z,28.80
2018-08-17T12:23:23.792Z,28.70
2018-08-17T12:25:56.200Z,28.60
2018-08-17T12:28:25.963Z,28.40
2018-08-17T12:30:54.691Z,28.30
2018-08-17T12:33:23.326Z,28.20
2018-08-17T12:35:52.219Z,28.20
2018-08-17T12:38:20.804Z,28.20
2018-08-17T12:40:50.795Z,28.10
2018-08-17T12:43:24.983Z,28.10
2018-08-17T12:45:53.734Z,28.20
2018-08-17T12:48:22.561Z,28.30
2018-08-17T12:50:51.175Z,28.30
2018-08-17T12:53:19.886Z,28.30
2018-08-17T12:55:48.553Z,28.20
2018-08-17T12:58:17.405Z,28.20
2018-08-17T13:00:46.198Z,28.30
2018-08-17T13:03:14.894Z,28.30
2018-08-17T13:05:43.832Z,28.30
2018-08-17T13:08:12.832Z,28.30
2018-08-17T13:10:41.590Z,28.30
2018-08-17T13:13:11.071Z,28.30
2018-08-17T13:16:14.251Z,28.40
2018-08-17T13:18:43.072Z,28.70
2018-08-17T13:21:11.820Z,28.70
2018-08-17T13:23:40.520Z,28.80
2018-08-17T13:26:09.207Z,28.70
2018-08-17T13:28:37.874Z,28.70
2018-08-17T13:31:06.578Z,28.60
2018-08-17T13:33:35.356Z,28.60
2018-08-17T13:36:04.115Z,28.60
2018-08-17T13:38:32.764Z,28.60
2018-08-17T13:41:01.443Z,28.60
2018-08-17T13:43:30.265Z,28.60
2018-08-17T13:45:58.962Z,28.70
2018-08-17T13:48:27.643Z,28.80
2018-08-17T13:50:56.279Z,28.80
2018-08-17T13:53:25.150Z,28.90
2018-08-17T13:55:53.758Z,28.80
2018-08-17T13:58:23.637Z,28.80
2018-08-17T14:00:52.960Z,28.70
2018-08-17T14:03:21.702Z,28.70
2018-08-17T14:05:50.335Z,28.90
2018-08-17T14:08:18.961Z,28.90
2018-08-17T14:10:48.032Z,29.00
2018-08-17T14:13:16.636Z,29.00
2018-08-17T14:15:45.308Z,29.00
2018-08-17T14:18:13.972Z,29.00
2018-08-17T14:20:42.635Z,29.00
2018-08-17T14:23:11.449Z,29.00
2018-08-17T14:25:40.135Z,29.00
2018-08-17T14:28:08.824Z,29.00
2018-08-17T14:30:37.478Z,29.20
2018-08-17T14:33:06.298Z,29.30
2018-08-17T14:35:35.196Z,29.40
2018-08-17T14:38:03.944Z,29.50
2018-08-17T14:40:32.661Z,29.40
2018-08-17T14:43:01.395Z,29.40
2018-08-17T14:45:30.035Z,30.10
2018-08-17T14:47:58.684Z,29.30
2018-08-17T14:50:27.555Z,29.20
2018-08-17T14:52:56.121Z,29.30
2018-08-17T14:55:24.906Z,29.30
2018-08-17T14:57:54.161Z,29.40
2018-08-17T15:00:22.828Z,29.40
2018-08-17T15:02:51.468Z,29.30
2018-08-17T15:05:20.066Z,29.30
2018-08-17T15:07:48.692Z,29.40
2018-08-17T15:10:17.297Z,29.40
2018-08-17T15:12:45.968Z,29.40
2018-08-17T15:15:14.836Z,29.40
2018-08-17T15:17:43.470Z,29.30
2018-08-17T15:20:13.163Z,29.40
2018-08-17T15:22:42.047Z,29.50
2018-08-17T15:25:10.851Z,29.50
2018-08-17T15:30:22.844Z,29.30
2018-08-17T15:32:51.494Z,29.10
2018-08-17T15:35:20.220Z,29.00
2018-08-17T15:37:48.797Z,29.00
2018-08-17T15:40:17.939Z,29.00
2018-08-17T15:42:46.520Z,28.90
2018-08-17T15:45:21.279Z,28.80
2018-08-17T15:47:49.928Z,28.70
2018-08-17T15:50:20.001Z,28.60
2018-08-17T15:52:48.805Z,28.60
2018-08-17T15:55:18.244Z,28.50
2018-08-17T15:57:47.360Z,28.50
2018-08-17T16:00:19.623Z,28.50
2018-08-17T16:02:48.238Z,28.50
2018-08-17T16:05:16.986Z,28.40
2018-08-17T16:07:45.639Z,28.40
2018-08-17T16:10:15.599Z,28.40
2018-08-17T16:12:45.035Z,28.40
2018-08-17T16:15:13.944Z,28.40
2018-08-17T16:17:42.527Z,28.40
2018-08-17T16:20:12.448Z,28.40
2018-08-17T16:22:41.952Z,28.40
2018-08-17T16:25:11.444Z,28.40
2018-08-17T16:27:41.017Z,28.50
2018-08-17T16:30:13.500Z,28.60
2018-08-17T16:32:42.472Z,28.60
2018-08-17T16:35:12.093Z,28.60
2018-08-17T16:37:47.240Z,28.50
2018-08-17T16:40:16.563Z,28.40
2018-08-17T16:42:46.330Z,28.30
2018-08-17T16:45:15.284Z,28.20
2018-08-17T16:47:44.054Z,28.10
2018-08-17T16:50:12.669Z,28.00
2018-08-17T16:52:41.367Z,28.00
2018-08-17T16:55:09.965Z,27.90
2018-08-17T16:57:39.018Z,28.00
2018-08-17T17:00:09.499Z,28.00
2018-08-17T17:02:38.599Z,28.00
2018-08-17T17:05:08.140Z,27.90
2018-08-17T17:07:36.677Z,27.80
2018-08-17T17:10:07.051Z,27.80
2018-08-17T17:12:36.257Z,27.80
2018-08-17T17:15:25.622Z,27.70
2018-08-17T17:17:59.491Z,27.60
2018-08-17T17:20:33.630Z,27.50
2018-08-17T17:23:02.763Z,27.50
2018-08-17T17:25:31.481Z,27.40
2018-08-17T17:28:00.082Z,27.40
2018-08-17T17:30:36.911Z,27.40
2018-08-17T17:33:05.587Z,27.40
2018-08-17T17:35:34.432Z,27.50
2018-08-17T17:38:03.208Z,27.60
2018-08-17T17:40:32.268Z,27.70
2018-08-17T17:43:01.064Z,27.70
2018-08-17T17:45:30.204Z,27.70
2018-08-17T17:47:59.677Z,27.70
2018-08-17T17:50:28.463Z,27.60
2018-08-17T17:52:57.189Z,27.50
2018-08-17T17:55:30.033Z,27.60
2018-08-17T17:57:58.703Z,27.50
2018-08-17T18:00:27.304Z,27.40
2018-08-17T18:02:55.870Z,27.40
2018-08-17T18:05:24.815Z,27.40
2018-08-17T18:07:53.699Z,27.40
2018-08-17T18:10:22.861Z,27.40
2018-08-17T18:12:53.083Z,27.30
2018-08-17T18:15:21.834Z,27.30
2018-08-17T18:17:51.661Z,27.30
2018-08-17T18:20:21.561Z,27.30
2018-08-17T18:22:51.681Z,27.20
2018-08-17T18:25:20.523Z,27.10
2018-08-17T18:27:49.818Z,27.10
2018-08-17T18:30:19.249Z,27.10
2018-08-17T18:32:48.488Z,27.10
2018-08-17T18:35:17.508Z,27.10
2018-08-17T18:37:46.505Z,27.10
2018-08-17T18:40:15.260Z,27.10
2018-08-17T18:42:43.923Z,27.00
2018-08-17T18:45:13.239Z,27.00
2018-08-17T18:47:42.783Z,27.00
2018-08-17T18:50:11.648Z,27.00
2018-08-17T18:52:40.839Z,26.90
2018-08-17T18:55:09.801Z,26.90
2018-08-17T18:57:38.659Z,26.90
2018-08-17T19:00:09.900Z,26.80
2018-08-17T19:02:38.889Z,26.80
2018-08-17T19:05:08.034Z,26.80
2018-08-17T19:07:37.330Z,26.70
2018-08-17T19:10:06.699Z,26.70
2018-08-17T19:12:35.827Z,26.70
2018-08-17T19:15:08.990Z,26.70
2018-08-17T19:17:38.031Z,26.70
2018-08-17T19:20:08.915Z,26.70
2018-08-17T19:22:40.063Z,26.70
2018-08-17T19:25:10.404Z,26.60
2018-08-17T19:27:39.931Z,26.70
2018-08-17T19:30:25.591Z,26.70
2018-08-17T19:32:58.973Z,26.70
2018-08-17T19:35:28.092Z,26.60
2018-08-17T19:37:56.915Z,26.60
2018-08-17T19:40:26.591Z,26.60
2018-08-17T19:42:55.672Z,26.50
2018-08-17T19:45:29.666Z,26.50
2018-08-17T19:47:58.561Z,26.60
2018-08-17T19:50:27.186Z,26.50
2018-08-17T19:52:56.265Z,26.60
2018-08-17T19:55:24.873Z,26.60
2018-08-17T19:57:53.603Z,26.60
2018-08-17T20:00:22.506Z,26.60
2018-08-17T20:02:51.120Z,26.60
2018-08-17T20:05:19.795Z,26.60
2018-08-17T20:07:48.448Z,26.50
2018-08-17T20:10:16.991Z,26.50
2018-08-17T20:12:45.764Z,26.50
2018-08-17T20:15:14.747Z,26.40
2018-08-17T20:17:50.185Z,26.40
2018-08-17T20:20:19.006Z,26.50
2018-08-17T20:22:47.597Z,26.40
2018-08-17T20:25:17.374Z,26.40
2018-08-17T20:27:46.681Z,26.40
2018-08-17T20:30:24.414Z,26.40
2018-08-17T20:32:52.987Z,26.40
2018-08-17T20:35:22.062Z,26.30
2018-08-17T20:37:52.597Z,26.30
2018-08-17T20:40:21.693Z,26.30
2018-08-17T20:42:50.443Z,26.30
2018-08-17T20:45:20.190Z,26.30
2018-08-17T20:47:49.034Z,26.20
2018-08-17T20:50:18.960Z,26.20
2018-08-17T20:52:57.549Z,26.20
2018-08-17T20:55:26.273Z,26.20
2018-08-17T20:57:56.159Z,26.20
2018-08-17T21:00:26.264Z,26.20
2018-08-17T21:02:55.912Z,26.10
2018-08-17T21:05:24.563Z,26.10
2018-08-17T21:07:53.143Z,26.10
2018-08-17T21:10:21.890Z,26.10
2018-08-17T21:12:51.085Z,26.10
2018-08-17T21:15:19.959Z,26.10
2018-08-17T21:17:48.924Z,26.00
2018-08-17T21:20:17.535Z,26.10
2018-08-17T21:22:46.219Z,26.00
2018-08-17T21:25:15.254Z,26.00
2018-08-17T21:27:43.992Z,26.00
2018-08-17T21:30:12.719Z,26.00
2018-08-17T21:32:41.280Z,26.00
2018-08-17T21:35:10.274Z,26.00
2018-08-17T21:37:38.895Z,25.90
2018-08-17T21:40:15.224Z,25.90
2018-08-17T21:42:44.017Z,25.90
2018-08-17T21:45:12.715Z,25.90
2018-08-17T21:47:42.037Z,25.90
2018-08-17T21:50:15.924Z,25.80
2018-08-17T21:52:45.495Z,25.80
2018-08-17T21:55:14.709Z,25.80
2018-08-17T21:57:43.995Z,25.80
2018-08-17T22:00:19.653Z,25.80
2018-08-17T22:03:05.288Z,25.80
2018-08-17T22:05:34.775Z,25.80
2018-08-17T22:08:03.367Z,25.70
2018-08-17T22:10:31.928Z,25.70
2018-08-17T22:13:00.585Z,25.70
2018-08-17T22:15:30.533Z,25.70
2018-08-17T22:17:59.282Z,25.70
2018-08-17T22:20:27.893Z,25.70
2018-08-17T22:22:56.655Z,25.70
2018-08-17T22:25:25.229Z,25.80
2018-08-17T22:27:53.968Z,25.70
2018-08-17T22:30:23.903Z,25.80
2018-08-17T22:32:53.338Z,25.80
2018-08-17T22:35:22.061Z,25.70
2018-08-17T22:37:50.663Z,25.70
2018-08-17T22:40:19.292Z,25.70
2018-08-17T22:42:49.064Z,25.60
2018-08-17T22:45:17.803Z,25.60
2018-08-17T22:47:46.357Z,25.40
2018-08-17T22:50:14.975Z,25.30
2018-08-17T22:52:43.718Z,25.40
2018-08-17T22:55:12.316Z,25.40
2018-08-17T22:57:40.914Z,25.40
2018-08-17T23:00:31.354Z,25.30
2018-08-17T23:03:01.789Z,25.30
2018-08-17T23:05:34.210Z,25.30
2018-08-17T23:08:02.872Z,25.30
2018-08-17T23:10:31.503Z,25.30
2018-08-17T23:13:00.087Z,25.30
2018-08-17T23:15:28.701Z,25.20
2018-08-17T23:18:00.074Z,25.20
2018-08-17T23:20:33.702Z,25.20
2018-08-17T23:23:03.215Z,25.20
2018-08-17T23:25:31.985Z,25.10
2018-08-17T23:28:01.285Z,25.10
2018-08-17T23:30:30.224Z,25.10
2018-08-17T23:32:59.174Z,25.10
2018-08-17T23:35:28.094Z,25.00
2018-08-17T23:37:56.777Z,24.90
2018-08-17T23:40:25.383Z,25.00
2018-08-17T23:42:54.018Z,24.80
2018-08-17T23:45:22.554Z,24.80
2018-08-17T23:47:51.091Z,24.80
2018-08-17T23:50:19.749Z,24.70
2018-08-17T23:52:48.374Z,24.70
2018-08-17T23:55:18.174Z,24.70
2018-08-17T23:57:47.380Z,24.70
